Terminal Aerodrome Forecast
Issued by NWS

Home | Current Version | Previous Version | Text Only | Print | Product List | Glossary On
Versions: 1 2 3 4 5 6 7 8 9 10 11 12 13 14 15 16 17 18 19 20 21 22 23 24 25 26 27 28 29
734
FTUS41 KBUF 290536
TAFJHW
TAF
KJHW 290536Z 2906/3006 09008KT P6SM OVC010
     FM291500 11004KT P6SM OVC015
     FM291600 10004KT P6SM VCSH OVC015
     FM291800 06005KT 6SM -SHRA OVC020
     FM292000 01007KT 6SM -SHRA OVC012
     FM300000 03006KT P6SM OVC015
      AMD LTD TO CLD VIS AND WIND=

USA.gov is the U.S. government's official web portal to all federal, state and local government web resources and services.